Time;durP1;ratioP1;P1;durP2;ratioP2;P2;SDS_P1;SDS_P2;PMS_P1;PMS_P2;Temp;Humidity;BMP_temperature;BMP_pressure;BME280_temperature;BME280_humidity;BME280_pressure;Samples;Min_cycle;Max_cycle;Signal;HPM_P1;HPM_P2
2021/12/25 00:01:36;;;;;;;;;;;7.50;96.70;;;;;;5042058;28;20025;-76
2021/12/25 00:04:02;;;;;;;;;;;7.50;96.60;;;;;;5047808;28;20043;-79
2021/12/25 00:06:29;;;;;;;;;;;7.50;96.60;;;;;;5050179;28;19943;-78
2021/12/25 00:08:56;;;;;;;;;;;7.50;96.70;;;;;;5042868;28;19925;-78
2021/12/25 00:11:23;;;;;;;;;;;7.50;96.70;;;;;;5044970;28;19978;-76
2021/12/25 00:13:50;;;;;;;;;;;7.60;96.70;;;;;;5046375;28;19970;-78
2021/12/25 00:16:17;;;;;;;;;;;7.50;96.60;;;;;;5040529;28;19932;-78
2021/12/25 00:18:43;;;;;;;;;;;7.60;96.60;;;;;;5049567;28;19932;-76
2021/12/25 00:21:10;;;;;;;;;;;7.60;96.70;;;;;;5042630;28;20376;-76
2021/12/25 00:23:37;;;;;;;;;;;7.50;96.70;;;;;;5040074;28;20430;-76
2021/12/25 00:26:08;;;;;;;;;;;7.50;97.00;;;;;;5044657;28;20023;-78
2021/12/25 00:28:52;;;;;;;;;;;7.50;96.70;;;;;;5045966;28;20391;-76
2021/12/25 00:31:42;;;;;;;;;;;7.50;96.80;;;;;;5043017;28;19940;-77
2021/12/25 00:34:10;;;;;;;;;;;7.50;96.80;;;;;;5038201;28;20381;-78
2021/12/25 00:36:37;;;;;;;;;;;7.50;96.80;;;;;;5042487;28;19925;-78
2021/12/25 00:39:03;;;;;;;;;;;7.50;96.80;;;;;;5044165;28;19921;-78
2021/12/25 00:41:30;;;;;;;;;;;7.50;96.80;;;;;;5042472;28;19936;-77
2021/12/25 00:43:57;;;;;;;;;;;7.60;96.80;;;;;;5045052;28;19924;-77
2021/12/25 00:46:24;;;;;;;;;;;7.50;96.80;;;;;;5038556;28;20353;-77
2021/12/25 00:48:51;;;;;;;;;;;7.50;96.80;;;;;;5048028;28;19925;-79
2021/12/25 00:51:17;;;;;;;;;;;7.50;96.80;;;;;;5044645;28;19924;-78
2021/12/25 00:53:44;;;;;;;;;;;7.60;96.80;;;;;;5046518;28;19925;-77
2021/12/25 00:56:10;;;;;;;;;;;7.50;96.80;;;;;;5044107;28;19928;-76
2021/12/25 00:58:37;;;;;;;;;;;7.50;96.70;;;;;;5041083;28;19924;-78
2021/12/25 01:01:05;;;;;;;;;;;7.60;96.80;;;;;;5045365;28;20443;-78
2021/12/25 01:03:31;;;;;;;;;;;7.60;96.80;;;;;;5046116;28;20464;-77
2021/12/25 01:05:58;;;;;;;;;;;7.50;96.70;;;;;;5044321;28;20406;-78
2021/12/25 01:08:24;;;;;;;;;;;7.60;96.80;;;;;;5044987;28;19927;-77
2021/12/25 01:10:51;;;;;;;;;;;7.60;96.80;;;;;;5045293;28;20534;-78
2021/12/25 01:13:23;;;;;;;;;;;7.60;96.70;;;;;;5045813;28;19928;-77
2021/12/25 01:16:01;;;;;;;;;;;7.50;96.70;;;;;;5045946;28;19982;-78
2021/12/25 01:21:44;;;;;;;;;;;7.50;96.60;;;;;;5000816;28;19949;-78
2021/12/25 01:24:35;;;;;;;;;;;7.60;96.60;;;;;;5035578;28;19940;-78
2021/12/25 01:27:30;;;;;;;;;;;7.60;96.60;;;;;;5045247;28;19917;-77
2021/12/25 01:30:03;;;;;;;;;;;7.60;96.60;;;;;;5044402;28;20328;-77
2021/12/25 01:36:08;;;;;;;;;;;7.60;96.60;;;;;;5019818;28;20030;-78
2021/12/25 01:38:51;;;;;;;;;;;7.60;96.60;;;;;;5015617;28;20059;-77
2021/12/25 01:41:40;;;;;;;;;;;7.50;96.50;;;;;;5040385;28;20347;-78
2021/12/25 01:49:33;;;;;;;;;;;7.50;96.40;;;;;;5045980;28;20001;-77
2021/12/25 01:52:01;;;;;;;;;;;7.60;96.40;;;;;;5037164;28;19936;-78
2021/12/25 01:54:28;;;;;;;;;;;7.60;96.40;;;;;;5043335;28;19987;-76
2021/12/25 01:56:54;;;;;;;;;;;7.60;96.40;;;;;;5039822;28;19996;-78
2021/12/25 01:59:21;;;;;;;;;;;7.50;96.40;;;;;;5040943;28;19924;-77
2021/12/25 02:01:48;;;;;;;;;;;7.60;96.40;;;;;;5038368;28;19928;-77
2021/12/25 02:04:14;;;;;;;;;;;7.60;96.40;;;;;;5040939;28;19946;-78
2021/12/25 02:06:41;;;;;;;;;;;7.60;96.40;;;;;;5035519;28;19983;-77
2021/12/25 02:09:09;;;;;;;;;;;7.60;96.40;;;;;;5041006;28;19954;-77
2021/12/25 02:11:35;;;;;;;;;;;7.60;96.40;;;;;;5043779;28;19975;-77
2021/12/25 02:14:03;;;;;;;;;;;7.60;96.40;;;;;;5042743;28;19925;-77
2021/12/25 02:16:40;;;;;;;;;;;7.60;96.40;;;;;;5037105;28;19943;-77
2021/12/25 02:19:10;;;;;;;;;;;7.60;96.40;;;;;;5042997;28;19967;-77
2021/12/25 02:21:39;;;;;;;;;;;7.50;96.40;;;;;;5045333;28;19921;-76
2021/12/25 02:24:08;;;;;;;;;;;7.60;96.40;;;;;;5042093;28;19924;-76
2021/12/25 02:26:36;;;;;;;;;;;7.60;96.40;;;;;;5041398;28;19929;-76
2021/12/25 02:29:03;;;;;;;;;;;7.50;96.40;;;;;;5040308;28;19925;-76
2021/12/25 02:31:30;;;;;;;;;;;7.50;96.40;;;;;;5039005;28;20753;-77
2021/12/25 02:33:57;;;;;;;;;;;7.60;96.40;;;;;;5041839;28;19932;-76
2021/12/25 02:36:23;;;;;;;;;;;7.50;96.40;;;;;;5038130;28;19947;-76
2021/12/25 02:38:52;;;;;;;;;;;7.50;96.40;;;;;;5037479;28;19928;-76
2021/12/25 02:41:18;;;;;;;;;;;7.60;96.40;;;;;;5041581;28;19928;-76
2021/12/25 02:43:46;;;;;;;;;;;7.60;96.40;;;;;;5035209;28;19925;-77
2021/12/25 02:46:13;;;;;;;;;;;7.60;96.40;;;;;;5041149;28;19928;-75
2021/12/25 02:48:41;;;;;;;;;;;7.50;96.40;;;;;;5048128;28;19928;-76
2021/12/25 02:51:08;;;;;;;;;;;7.50;96.40;;;;;;5046950;28;19925;-77
2021/12/25 02:53:35;;;;;;;;;;;7.60;96.40;;;;;;5045306;28;19931;-76
2021/12/25 02:56:03;;;;;;;;;;;7.50;96.40;;;;;;5043756;28;19921;-76
2021/12/25 02:58:30;;;;;;;;;;;7.50;96.40;;;;;;5043832;28;19928;-78
2021/12/25 03:00:58;;;;;;;;;;;7.50;96.40;;;;;;5048514;28;19924;-77
2021/12/25 03:03:24;;;;;;;;;;;7.50;96.50;;;;;;5052990;28;19994;-77
2021/12/25 03:05:51;;;;;;;;;;;7.50;96.50;;;;;;5048942;28;19929;-76
2021/12/25 03:08:18;;;;;;;;;;;7.60;96.60;;;;;;5044540;28;20039;-76
2021/12/25 03:10:46;;;;;;;;;;;7.50;96.50;;;;;;5046727;28;19925;-76
2021/12/25 03:13:30;;;;;;;;;;;7.60;96.60;;;;;;5050588;28;20388;-77
2021/12/25 03:15:57;;;;;;;;;;;7.60;96.60;;;;;;5036238;28;20007;-76
2021/12/25 03:18:25;;;;;;;;;;;7.60;96.70;;;;;;5044638;28;20724;-76
2021/12/25 03:20:55;;;;;;;;;;;7.60;96.70;;;;;;5046369;28;19925;-76
2021/12/25 03:23:23;;;;;;;;;;;7.50;96.70;;;;;;5042398;28;19944;-77
2021/12/25 03:25:51;;;;;;;;;;;7.60;96.70;;;;;;5047727;28;19928;-76
2021/12/25 03:28:21;;;;;;;;;;;7.60;96.80;;;;;;5046402;28;19990;-77
2021/12/25 03:30:48;;;;;;;;;;;7.60;96.80;;;;;;5040520;28;20379;-76
2021/12/25 03:33:15;;;;;;;;;;;7.60;96.90;;;;;;5043891;28;19999;-77
2021/12/25 03:35:42;;;;;;;;;;;7.60;96.90;;;;;;5039176;28;19970;-77
2021/12/25 03:38:10;;;;;;;;;;;7.60;96.90;;;;;;5043546;28;19925;-77
2021/12/25 03:40:37;;;;;;;;;;;7.60;96.80;;;;;;5042828;28;19932;-77
2021/12/25 03:43:04;;;;;;;;;;;7.60;96.80;;;;;;5045883;28;19943;-77
2021/12/25 03:45:33;;;;;;;;;;;7.60;96.80;;;;;;5043804;28;19931;-76
2021/12/25 03:48:08;;;;;;;;;;;7.60;96.80;;;;;;5045176;28;19925;-77
2021/12/25 03:53:36;;;;;;;;;;;7.60;96.80;;;;;;5045957;28;19980;-76
2021/12/25 03:58:47;;;;;;;;;;;7.60;96.80;;;;;;5043530;28;20296;-77
2021/12/25 04:01:27;;;;;;;;;;;7.60;96.80;;;;;;5046704;28;20380;-77
2021/12/25 04:04:05;;;;;;;;;;;7.60;96.80;;;;;;5045734;28;19920;-76
2021/12/25 04:06:33;;;;;;;;;;;7.60;96.80;;;;;;5041524;28;19925;-77
2021/12/25 04:09:02;;;;;;;;;;;7.60;96.80;;;;;;5043383;28;20453;-77
2021/12/25 04:11:32;;;;;;;;;;;7.60;96.80;;;;;;5044339;28;19948;-76
2021/12/25 04:13:59;;;;;;;;;;;7.60;96.80;;;;;;5045147;28;19955;-77
2021/12/25 04:16:27;;;;;;;;;;;7.60;96.90;;;;;;5040907;28;20019;-77
2021/12/25 04:18:54;;;;;;;;;;;7.60;96.90;;;;;;5047070;28;19929;-77
2021/12/25 04:21:22;;;;;;;;;;;7.60;96.90;;;;;;5041434;28;19928;-77
2021/12/25 04:23:49;;;;;;;;;;;7.60;96.90;;;;;;5042039;28;19925;-77
2021/12/25 04:26:15;;;;;;;;;;;7.60;96.90;;;;;;5043051;28;19925;-77
2021/12/25 04:28:47;;;;;;;;;;;7.60;96.90;;;;;;5046496;28;20573;-76
2021/12/25 04:31:30;;;;;;;;;;;7.60;96.90;;;;;;5043545;28;19925;-76
2021/12/25 05:04:07;;;;;;;;;;;7.60;96.90;;;;;;5043748;28;19928;-77
2021/12/25 05:06:35;;;;;;;;;;;7.60;96.90;;;;;;5039467;28;20048;-76
2021/12/25 05:09:01;;;;;;;;;;;7.60;96.90;;;;;;5044352;28;19966;-77
2021/12/25 05:11:28;;;;;;;;;;;7.70;96.90;;;;;;5043307;28;19924;-76
2021/12/25 05:13:54;;;;;;;;;;;7.70;96.90;;;;;;5045694;28;19927;-78
2021/12/25 05:16:22;;;;;;;;;;;7.70;96.90;;;;;;5043181;28;19929;-77
2021/12/25 05:18:50;;;;;;;;;;;7.70;96.90;;;;;;5045577;28;19924;-76
2021/12/25 05:21:18;;;;;;;;;;;7.70;96.90;;;;;;5041946;28;19978;-77
2021/12/25 05:23:47;;;;;;;;;;;7.70;96.90;;;;;;5044940;28;19966;-77
2021/12/25 05:26:13;;;;;;;;;;;7.70;96.90;;;;;;5046237;28;19997;-77
2021/12/25 05:28:41;;;;;;;;;;;7.70;96.90;;;;;;5045364;28;19925;-76
2021/12/25 05:31:08;;;;;;;;;;;7.70;96.90;;;;;;5041909;28;20388;-76
2021/12/25 05:33:36;;;;;;;;;;;7.70;96.90;;;;;;5043427;28;20281;-76
2021/12/25 05:36:02;;;;;;;;;;;7.70;96.90;;;;;;5044220;28;19924;-75
2021/12/25 05:38:29;;;;;;;;;;;7.70;96.90;;;;;;5034518;28;19928;-76
2021/12/25 05:40:57;;;;;;;;;;;7.70;96.90;;;;;;5038908;28;19921;-77
2021/12/25 05:43:23;;;;;;;;;;;7.70;96.90;;;;;;5044242;28;19947;-76
2021/12/25 05:45:50;;;;;;;;;;;7.60;96.90;;;;;;5043950;28;20502;-77
2021/12/25 05:48:17;;;;;;;;;;;7.70;96.90;;;;;;5042469;28;19925;-77
2021/12/25 05:50:43;;;;;;;;;;;7.70;96.90;;;;;;5041373;28;19925;-77
2021/12/25 05:53:10;;;;;;;;;;;7.70;97.00;;;;;;5043672;28;20565;-75
2021/12/25 05:55:36;;;;;;;;;;;7.70;97.00;;;;;;5043805;28;20438;-76
2021/12/25 05:58:04;;;;;;;;;;;7.70;97.00;;;;;;5042510;28;19925;-77
2021/12/25 06:00:31;;;;;;;;;;;7.70;97.00;;;;;;5043803;28;19924;-77
2021/12/25 06:02:58;;;;;;;;;;;7.70;97.10;;;;;;5039258;28;19925;-75
2021/12/25 06:05:26;;;;;;;;;;;7.70;97.10;;;;;;5035469;28;19932;-77
2021/12/25 06:07:52;;;;;;;;;;;7.70;97.10;;;;;;5032217;28;19921;-76
2021/12/25 06:10:19;;;;;;;;;;;7.70;97.10;;;;;;5047704;28;20380;-77
2021/12/25 06:12:47;;;;;;;;;;;7.70;97.20;;;;;;5044394;28;19935;-77
2021/12/25 06:15:18;;;;;;;;;;;7.70;97.20;;;;;;5042368;28;19928;-76
2021/12/25 06:17:45;;;;;;;;;;;7.70;97.20;;;;;;5042348;28;19928;-77
2021/12/25 06:20:11;;;;;;;;;;;7.70;97.20;;;;;;5043731;28;20343;-77
2021/12/25 06:22:38;;;;;;;;;;;7.70;97.20;;;;;;5045279;28;19920;-78
2021/12/25 06:25:05;;;;;;;;;;;7.70;97.20;;;;;;5049755;28;19920;-77
2021/12/25 06:27:32;;;;;;;;;;;7.80;97.20;;;;;;5045658;28;19932;-77
2021/12/25 06:29:58;;;;;;;;;;;7.70;97.20;;;;;;5046806;28;19925;-76
2021/12/25 06:32:26;;;;;;;;;;;7.70;97.30;;;;;;5045134;28;19982;-76
2021/12/25 06:34:53;;;;;;;;;;;7.80;97.30;;;;;;5047012;28;19925;-77
2021/12/25 06:37:19;;;;;;;;;;;7.80;97.30;;;;;;5043418;28;20398;-77
2021/12/25 06:39:47;;;;;;;;;;;7.80;97.30;;;;;;5042547;28;19924;-76
2021/12/25 06:42:14;;;;;;;;;;;7.80;97.30;;;;;;5047218;28;19924;-77
2021/12/25 06:44:40;;;;;;;;;;;7.80;97.30;;;;;;5046369;28;19929;-77
2021/12/25 06:47:07;;;;;;;;;;;7.80;97.30;;;;;;5045030;28;19925;-77
2021/12/25 06:49:35;;;;;;;;;;;7.80;97.30;;;;;;5053356;28;20467;-76
2021/12/25 06:52:02;;;;;;;;;;;7.80;97.30;;;;;;5044510;28;19924;-76
2021/12/25 06:54:28;;;;;;;;;;;7.80;97.30;;;;;;5045633;28;20890;-77
2021/12/25 06:56:55;;;;;;;;;;;7.80;97.30;;;;;;5044918;28;19928;-77
2021/12/25 06:59:22;;;;;;;;;;;7.80;97.30;;;;;;5045576;28;20720;-77
2021/12/25 07:01:49;;;;;;;;;;;7.80;97.30;;;;;;5043888;28;19925;-77
2021/12/25 07:04:15;;;;;;;;;;;7.80;97.30;;;;;;5044680;28;19925;-76
2021/12/25 07:06:43;;;;;;;;;;;7.80;97.30;;;;;;5040977;28;19925;-77
2021/12/25 07:09:10;;;;;;;;;;;7.80;97.40;;;;;;5042439;28;19921;-77
2021/12/25 07:11:37;;;;;;;;;;;7.80;97.40;;;;;;5046516;28;20006;-77
2021/12/25 07:14:05;;;;;;;;;;;7.80;97.50;;;;;;5043335;28;20290;-77
2021/12/25 07:16:32;;;;;;;;;;;7.80;97.50;;;;;;5043877;28;20705;-76
2021/12/25 07:18:58;;;;;;;;;;;7.80;97.50;;;;;;5032602;28;19935;-77
2021/12/25 07:21:25;;;;;;;;;;;7.90;97.50;;;;;;5046202;28;20375;-77
2021/12/25 07:23:53;;;;;;;;;;;7.80;97.50;;;;;;5046513;28;19929;-77
2021/12/25 07:26:19;;;;;;;;;;;7.80;97.40;;;;;;5047760;28;19967;-77
2021/12/25 07:28:46;;;;;;;;;;;7.80;97.40;;;;;;5046108;28;20698;-76
2021/12/25 07:31:13;;;;;;;;;;;7.90;97.40;;;;;;5045256;28;19920;-77
2021/12/25 07:33:40;;;;;;;;;;;7.80;97.40;;;;;;5046593;28;19931;-77
2021/12/25 07:36:07;;;;;;;;;;;7.90;97.50;;;;;;5046270;28;19944;-78
2021/12/25 07:38:34;;;;;;;;;;;7.80;97.50;;;;;;5041564;28;19929;-78
2021/12/25 07:41:02;;;;;;;;;;;7.90;97.60;;;;;;5048615;28;19936;-77
2021/12/25 07:43:28;;;;;;;;;;;7.90;97.60;;;;;;5042287;28;19932;-79
2021/12/25 07:45:55;;;;;;;;;;;7.90;97.60;;;;;;5043003;28;19932;-78
2021/12/25 07:48:24;;;;;;;;;;;7.80;97.70;;;;;;5042635;28;19936;-77
2021/12/25 07:50:51;;;;;;;;;;;7.90;97.70;;;;;;5042174;28;20411;-77
2021/12/25 07:53:18;;;;;;;;;;;7.90;97.70;;;;;;5044568;28;20726;-78
2021/12/25 07:55:47;;;;;;;;;;;7.90;97.70;;;;;;5042086;28;19954;-78
2021/12/25 07:58:15;;;;;;;;;;;7.90;97.70;;;;;;5037620;28;20014;-77
2021/12/25 08:00:42;;;;;;;;;;;7.90;97.70;;;;;;5040991;28;19921;-77
2021/12/25 08:03:08;;;;;;;;;;;7.90;97.70;;;;;;5042831;28;20277;-79
2021/12/25 08:05:35;;;;;;;;;;;7.90;97.70;;;;;;5044993;28;20398;-77
2021/12/25 08:08:03;;;;;;;;;;;7.90;97.60;;;;;;5041351;28;20388;-77
2021/12/25 08:10:31;;;;;;;;;;;7.90;97.60;;;;;;5047413;28;19978;-77
2021/12/25 08:12:58;;;;;;;;;;;7.90;97.60;;;;;;5041842;28;19925;-77
2021/12/25 08:15:27;;;;;;;;;;;7.90;97.60;;;;;;5044421;28;19933;-76
2021/12/25 08:17:54;;;;;;;;;;;7.90;97.60;;;;;;5044807;28;20475;-76
2021/12/25 08:20:20;;;;;;;;;;;7.90;97.70;;;;;;5048892;28;20312;-78
2021/12/25 08:22:47;;;;;;;;;;;8.00;97.70;;;;;;5045811;28;19924;-77
2021/12/25 08:25:14;;;;;;;;;;;7.90;97.80;;;;;;5045977;28;19924;-78
2021/12/25 08:27:42;;;;;;;;;;;7.90;97.80;;;;;;5044678;28;19932;-77
2021/12/25 08:30:10;;;;;;;;;;;8.00;97.90;;;;;;5047519;28;19928;-79
2021/12/25 08:32:38;;;;;;;;;;;8.00;97.90;;;;;;5043109;28;20404;-79
2021/12/25 08:35:05;;;;;;;;;;;7.90;97.90;;;;;;5041957;28;20347;-78
2021/12/25 08:37:32;;;;;;;;;;;7.90;97.90;;;;;;5039671;28;20362;-77
2021/12/25 08:39:59;;;;;;;;;;;7.90;97.90;;;;;;5044570;28;20756;-78
2021/12/25 08:42:26;;;;;;;;;;;8.00;97.90;;;;;;5040604;28;19924;-77
2021/12/25 08:45:04;;;;;;;;;;;8.00;97.90;;;;;;5043037;28;19976;-74
2021/12/25 08:47:32;;;;;;;;;;;8.00;97.90;;;;;;5043996;28;19921;-75
2021/12/25 08:50:00;;;;;;;;;;;8.00;97.90;;;;;;5043468;28;19990;-75
2021/12/25 08:52:27;;;;;;;;;;;8.00;97.90;;;;;;5041940;28;19925;-75
2021/12/25 08:54:53;;;;;;;;;;;8.00;97.90;;;;;;5038241;28;19979;-74
2021/12/25 08:57:21;;;;;;;;;;;8.00;97.90;;;;;;5041473;28;19925;-75
2021/12/25 08:59:50;;;;;;;;;;;8.00;97.90;;;;;;5041587;28;19931;-74
2021/12/25 09:02:18;;;;;;;;;;;8.00;97.90;;;;;;5038861;28;19924;-75
2021/12/25 09:04:45;;;;;;;;;;;8.00;97.90;;;;;;5039897;28;19931;-76
2021/12/25 09:07:13;;;;;;;;;;;8.00;97.90;;;;;;5037730;28;19925;-74
2021/12/25 09:09:40;;;;;;;;;;;8.00;98.00;;;;;;5037787;28;19925;-75
2021/12/25 09:12:09;;;;;;;;;;;8.00;98.00;;;;;;5041131;28;19921;-74
2021/12/25 09:14:35;;;;;;;;;;;8.00;97.90;;;;;;5039324;28;19971;-74
2021/12/25 09:17:02;;;;;;;;;;;8.00;97.90;;;;;;5039056;28;19982;-75
2021/12/25 09:19:29;;;;;;;;;;;8.00;97.90;;;;;;5035527;28;19924;-75
2021/12/25 09:21:55;;;;;;;;;;;8.00;97.90;;;;;;5040754;28;20010;-75
2021/12/25 09:24:23;;;;;;;;;;;8.00;97.90;;;;;;5038478;28;19928;-75
2021/12/25 09:26:50;;;;;;;;;;;8.00;97.90;;;;;;5042737;28;19928;-74
2021/12/25 09:29:17;;;;;;;;;;;8.10;97.90;;;;;;5042257;28;20518;-74
2021/12/25 09:31:43;;;;;;;;;;;8.00;97.90;;;;;;5036964;28;19932;-74
2021/12/25 09:34:10;;;;;;;;;;;8.10;97.90;;;;;;5032795;28;19936;-74
2021/12/25 09:36:36;;;;;;;;;;;8.10;97.90;;;;;;5036563;28;19964;-75
2021/12/25 09:39:04;;;;;;;;;;;8.10;97.90;;;;;;5041297;28;19936;-74
2021/12/25 09:41:33;;;;;;;;;;;8.10;98.00;;;;;;5045343;28;20425;-74
2021/12/25 09:43:59;;;;;;;;;;;8.10;98.00;;;;;;5038490;28;20068;-74
2021/12/25 09:46:26;;;;;;;;;;;8.10;98.00;;;;;;5039041;28;19925;-75
2021/12/25 09:48:54;;;;;;;;;;;8.10;98.00;;;;;;5040248;28;19932;-71
2021/12/25 09:51:21;;;;;;;;;;;8.10;98.10;;;;;;5034985;28;20023;-76
2021/12/25 09:53:55;;;;;;;;;;;8.10;98.10;;;;;;5040827;28;19935;-75
2021/12/25 09:56:21;;;;;;;;;;;8.10;98.10;;;;;;5041717;28;20368;-73
2021/12/25 09:58:49;;;;;;;;;;;8.10;98.10;;;;;;5039942;28;19932;-75
2021/12/25 10:01:31;;;;;;;;;;;8.20;98.10;;;;;;5037738;28;20296;-74
2021/12/25 10:04:00;;;;;;;;;;;8.20;98.10;;;;;;5035131;28;19921;-73
2021/12/25 10:06:30;;;;;;;;;;;8.10;98.00;;;;;;5038231;28;20028;-74
2021/12/25 10:08:57;;;;;;;;;;;8.20;98.00;;;;;;5039209;28;19920;-75
2021/12/25 10:11:26;;;;;;;;;;;8.20;98.00;;;;;;5036795;28;19932;-75
2021/12/25 10:13:56;;;;;;;;;;;8.20;98.00;;;;;;5040924;28;20380;-74
2021/12/25 10:16:23;;;;;;;;;;;8.20;98.00;;;;;;5037363;28;20483;-74
2021/12/25 10:18:50;;;;;;;;;;;8.20;98.00;;;;;;5035860;28;20416;-75
2021/12/25 10:21:18;;;;;;;;;;;8.20;97.90;;;;;;5039623;28;20586;-75
2021/12/25 10:23:45;;;;;;;;;;;8.20;98.00;;;;;;5041445;28;19932;-75
2021/12/25 10:26:22;;;;;;;;;;;8.20;98.00;;;;;;5038578;28;19932;-77
2021/12/25 10:28:48;;;;;;;;;;;8.30;98.00;;;;;;5039844;28;19925;-76
2021/12/25 10:31:16;;;;;;;;;;;8.30;98.00;;;;;;5039716;28;19929;-76
2021/12/25 10:33:44;;;;;;;;;;;8.30;98.00;;;;;;5044564;28;19931;-75
2021/12/25 10:36:26;;;;;;;;;;;8.30;98.00;;;;;;5039624;28;19928;-73
2021/12/25 10:39:00;;;;;;;;;;;8.30;98.00;;;;;;5042249;28;20165;-74
2021/12/25 10:41:26;;;;;;;;;;;8.30;98.00;;;;;;5040412;28;19967;-75
2021/12/25 10:44:09;;;;;;;;;;;8.30;98.00;;;;;;5041584;28;19932;-74
2021/12/25 10:46:51;;;;;;;;;;;8.30;97.90;;;;;;5044879;28;19932;-74
2021/12/25 10:49:26;;;;;;;;;;;8.30;97.90;;;;;;5047316;28;21357;-75
2021/12/25 10:51:53;;;;;;;;;;;8.30;98.00;;;;;;5039412;28;19925;-75
2021/12/25 10:54:20;;;;;;;;;;;8.30;97.90;;;;;;5043527;28;19933;-76
2021/12/25 10:56:48;;;;;;;;;;;8.30;97.90;;;;;;5040923;28;19936;-75
2021/12/25 10:59:16;;;;;;;;;;;8.30;98.20;;;;;;5049620;28;19933;-75
2021/12/25 11:01:44;;;;;;;;;;;8.40;97.90;;;;;;5040123;28;19959;-75
2021/12/25 11:04:28;;;;;;;;;;;8.40;98.20;;;;;;5037052;28;19951;-75
2021/12/25 11:06:55;;;;;;;;;;;8.40;97.90;;;;;;5040289;28;19925;-75
2021/12/25 11:09:21;;;;;;;;;;;8.40;97.90;;;;;;5040854;28;19929;-74
2021/12/25 11:12:03;;;;;;;;;;;8.40;97.90;;;;;;5045144;28;19978;-75
2021/12/25 11:14:30;;;;;;;;;;;8.40;97.90;;;;;;5034321;28;19928;-76
2021/12/25 11:16:56;;;;;;;;;;;8.40;97.90;;;;;;5045175;28;19931;-75
2021/12/25 11:19:31;;;;;;;;;;;8.40;97.90;;;;;;5033681;28;19929;-74
2021/12/25 11:22:00;;;;;;;;;;;8.40;97.90;;;;;;5044266;28;20311;-73
2021/12/25 11:24:31;;;;;;;;;;;8.40;97.90;;;;;;5042367;28;19931;-75
2021/12/25 11:26:58;;;;;;;;;;;8.40;98.00;;;;;;5047191;28;19931;-75
2021/12/25 11:29:26;;;;;;;;;;;8.40;98.00;;;;;;5038515;28;19928;-75
2021/12/25 11:31:54;;;;;;;;;;;8.40;98.00;;;;;;5043453;28;19925;-74
2021/12/25 11:34:21;;;;;;;;;;;8.50;98.00;;;;;;5043176;28;19924;-75
2021/12/25 11:36:50;;;;;;;;;;;8.40;98.00;;;;;;5040451;28;20373;-74
2021/12/25 11:39:19;;;;;;;;;;;8.40;98.00;;;;;;5043167;28;19924;-75
2021/12/25 11:41:46;;;;;;;;;;;8.50;98.00;;;;;;5042632;28;19929;-76
2021/12/25 11:44:27;;;;;;;;;;;8.50;98.00;;;;;;5042997;28;19931;-74
2021/12/25 11:46:54;;;;;;;;;;;8.50;98.00;;;;;;5040766;28;19925;-76
2021/12/25 11:49:20;;;;;;;;;;;8.50;98.00;;;;;;5041216;28;19924;-75
2021/12/25 11:51:47;;;;;;;;;;;8.50;98.00;;;;;;5040872;28;19920;-75
2021/12/25 11:54:41;;;;;;;;;;;8.50;98.00;;;;;;5040485;28;19924;-75
2021/12/25 11:57:32;;;;;;;;;;;8.50;98.00;;;;;;5039645;28;19950;-75
2021/12/25 11:59:58;;;;;;;;;;;8.50;98.00;;;;;;5042879;28;19927;-72
2021/12/25 12:02:45;;;;;;;;;;;8.50;98.00;;;;;;5040044;28;20018;-76
2021/12/25 12:05:19;;;;;;;;;;;8.50;98.00;;;;;;5039023;28;19970;-75
2021/12/25 12:07:56;;;;;;;;;;;8.60;98.00;;;;;;5040886;28;19929;-75
2021/12/25 12:10:48;;;;;;;;;;;8.60;98.00;;;;;;5044011;28;20629;-75
2021/12/25 12:13:21;;;;;;;;;;;8.60;98.00;;;;;;5043484;28;20393;-75
2021/12/25 12:15:48;;;;;;;;;;;8.60;97.90;;;;;;5043723;28;19924;-74
2021/12/25 12:18:33;;;;;;;;;;;8.60;97.90;;;;;;5041193;28;19924;-76
2021/12/25 12:21:06;;;;;;;;;;;8.60;97.90;;;;;;5045050;28;19928;-72
2021/12/25 12:23:44;;;;;;;;;;;8.60;97.90;;;;;;5037760;28;19931;-72
2021/12/25 12:26:13;;;;;;;;;;;8.60;97.80;;;;;;5037240;28;19931;-73
2021/12/25 12:28:46;;;;;;;;;;;8.60;97.80;;;;;;5042029;28;19925;-73
2021/12/25 12:31:47;;;;;;;;;;;8.60;97.80;;;;;;5035629;28;19925;-74
2021/12/25 12:34:38;;;;;;;;;;;8.60;97.80;;;;;;4983308;28;19926;-74
2021/12/25 12:37:23;;;;;;;;;;;8.60;97.70;;;;;;5018969;28;19926;-74
2021/12/25 12:40:06;;;;;;;;;;;8.60;97.70;;;;;;5045283;28;19931;-74
2021/12/25 12:42:49;;;;;;;;;;;8.70;97.70;;;;;;5042213;28;19924;-73
2021/12/25 12:45:19;;;;;;;;;;;8.60;97.70;;;;;;5041759;28;20039;-74
2021/12/25 12:48:06;;;;;;;;;;;8.60;97.60;;;;;;5043248;28;19957;-74
2021/12/25 12:50:33;;;;;;;;;;;8.70;97.70;;;;;;5045213;28;20669;-74
2021/12/25 12:53:01;;;;;;;;;;;8.70;97.70;;;;;;5040806;28;19924;-73
2021/12/25 12:55:29;;;;;;;;;;;8.70;97.70;;;;;;5038278;28;19990;-71
2021/12/25 12:58:06;;;;;;;;;;;8.70;97.70;;;;;;5041984;28;20424;-73
2021/12/25 13:00:34;;;;;;;;;;;8.60;97.70;;;;;;5038389;28;19929;-72
2021/12/25 13:03:01;;;;;;;;;;;8.70;97.70;;;;;;5039405;28;19955;-72
2021/12/25 13:05:30;;;;;;;;;;;8.70;97.60;;;;;;5042628;28;19939;-73
2021/12/25 13:07:58;;;;;;;;;;;8.70;97.60;;;;;;5038949;28;19921;-72
2021/12/25 13:10:33;;;;;;;;;;;8.70;97.60;;;;;;5041793;28;19920;-72
2021/12/25 13:13:11;;;;;;;;;;;8.70;97.60;;;;;;5044284;28;19935;-72
2021/12/25 13:15:40;;;;;;;;;;;8.70;97.70;;;;;;5040451;28;19939;-73
2021/12/25 13:18:09;;;;;;;;;;;8.70;97.60;;;;;;5038597;28;19925;-72
2021/12/25 13:20:37;;;;;;;;;;;8.70;97.60;;;;;;5038995;28;19932;-73
2021/12/25 13:23:05;;;;;;;;;;;8.70;97.60;;;;;;5037946;28;19987;-73
2021/12/25 13:25:32;;;;;;;;;;;8.60;97.60;;;;;;5036710;28;19935;-72
2021/12/25 13:27:59;;;;;;;;;;;8.70;97.60;;;;;;5034904;28;19936;-73
2021/12/25 13:30:27;;;;;;;;;;;8.70;97.50;;;;;;5034883;28;19925;-74
2021/12/25 13:32:55;;;;;;;;;;;8.60;97.50;;;;;;5042156;28;19924;-73
2021/12/25 13:35:22;;;;;;;;;;;8.60;97.40;;;;;;5041898;28;19920;-73
2021/12/25 13:37:56;;;;;;;;;;;8.60;97.40;;;;;;5038724;28;19967;-72
2021/12/25 13:40:22;;;;;;;;;;;8.70;97.40;;;;;;5040404;28;19931;-72
2021/12/25 13:42:49;;;;;;;;;;;8.60;97.30;;;;;;5035089;28;19947;-73
2021/12/25 13:45:16;;;;;;;;;;;8.60;97.30;;;;;;5034605;28;19924;-72
2021/12/25 13:47:42;;;;;;;;;;;8.60;97.30;;;;;;5037239;28;19924;-72
2021/12/25 13:50:10;;;;;;;;;;;8.60;97.20;;;;;;5037980;28;19978;-73
2021/12/25 13:52:38;;;;;;;;;;;8.60;97.20;;;;;;5039812;28;19974;-73
2021/12/25 13:55:10;;;;;;;;;;;8.50;97.20;;;;;;5037747;28;19935;-72
2021/12/25 13:57:39;;;;;;;;;;;8.50;97.20;;;;;;5037921;28;19929;-73
2021/12/25 14:00:07;;;;;;;;;;;8.50;97.20;;;;;;5036451;28;19925;-72
2021/12/25 14:02:34;;;;;;;;;;;8.50;97.10;;;;;;5036844;28;20384;-73
2021/12/25 14:05:00;;;;;;;;;;;8.50;97.10;;;;;;5035800;28;20467;-73
2021/12/25 14:07:29;;;;;;;;;;;8.50;97.10;;;;;;5035342;28;20301;-73
2021/12/25 14:09:56;;;;;;;;;;;8.50;97.10;;;;;;5039403;28;20392;-73
2021/12/25 14:12:23;;;;;;;;;;;8.40;97.10;;;;;;5041081;28;19924;-73
2021/12/25 14:14:51;;;;;;;;;;;8.40;97.10;;;;;;5036619;28;19925;-73
2021/12/25 14:17:17;;;;;;;;;;;8.40;97.10;;;;;;5040616;28;19925;-73
2021/12/25 14:19:44;;;;;;;;;;;8.40;97.00;;;;;;5039384;28;20372;-73
2021/12/25 14:22:11;;;;;;;;;;;8.40;97.00;;;;;;5039862;28;19929;-73
2021/12/25 14:24:43;;;;;;;;;;;8.40;97.00;;;;;;5040370;28;19925;-74
2021/12/25 14:27:10;;;;;;;;;;;8.40;97.00;;;;;;5039919;28;19986;-73
2021/12/25 14:29:37;;;;;;;;;;;8.40;97.00;;;;;;5037600;28;19921;-73
2021/12/25 14:32:04;;;;;;;;;;;8.30;97.00;;;;;;5039866;28;19948;-73
2021/12/25 14:34:32;;;;;;;;;;;8.30;97.00;;;;;;5039427;28;20593;-72
2021/12/25 14:36:59;;;;;;;;;;;8.30;97.00;;;;;;5035353;28;19936;-71
2021/12/25 14:39:26;;;;;;;;;;;8.20;97.00;;;;;;5039619;28;19921;-73
2021/12/25 14:41:54;;;;;;;;;;;8.20;97.00;;;;;;5043166;28;19921;-73
2021/12/25 14:44:22;;;;;;;;;;;8.20;97.00;;;;;;5043652;28;20002;-72
2021/12/25 14:46:51;;;;;;;;;;;8.20;97.00;;;;;;5042359;28;19929;-72
2021/12/25 14:49:17;;;;;;;;;;;8.20;97.00;;;;;;5043358;28;19924;-72
2021/12/25 14:51:46;;;;;;;;;;;8.20;97.10;;;;;;5040651;28;19920;-73
2021/12/25 14:54:13;;;;;;;;;;;8.20;97.10;;;;;;5042083;28;19924;-74
2021/12/25 14:56:41;;;;;;;;;;;8.20;97.10;;;;;;5041543;28;19921;-73
2021/12/25 14:59:14;;;;;;;;;;;8.10;97.10;;;;;;5044302;28;19925;-73
2021/12/25 15:01:42;;;;;;;;;;;8.10;97.10;;;;;;5041122;28;20188;-73
2021/12/25 15:04:10;;;;;;;;;;;8.10;97.00;;;;;;5041925;28;19929;-73
2021/12/25 15:06:41;;;;;;;;;;;8.10;97.00;;;;;;5043480;28;20029;-73
2021/12/25 15:09:09;;;;;;;;;;;8.10;97.00;;;;;;5043709;28;19929;-73
2021/12/25 15:11:37;;;;;;;;;;;8.10;96.90;;;;;;5043455;28;19924;-74
2021/12/25 15:14:04;;;;;;;;;;;8.00;96.90;;;;;;5037727;28;20730;-73
2021/12/25 15:16:36;;;;;;;;;;;8.00;96.90;;;;;;5039059;28;19971;-73
2021/12/25 15:19:03;;;;;;;;;;;8.00;96.90;;;;;;5042694;28;19978;-73
2021/12/25 15:21:29;;;;;;;;;;;8.00;96.80;;;;;;5037635;28;19971;-73
2021/12/25 15:24:08;;;;;;;;;;;8.00;96.80;;;;;;5043755;28;19970;-73
2021/12/25 15:26:39;;;;;;;;;;;7.90;96.80;;;;;;5042677;28;19924;-73
2021/12/25 15:29:06;;;;;;;;;;;7.90;96.80;;;;;;5034204;28;20066;-73
2021/12/25 15:31:33;;;;;;;;;;;7.90;96.70;;;;;;5042692;28;19931;-73